메인 페이지
METAR-TAF:

METAR-TAF

공항 :

방기 음포코 국제공항

방기, 중앙아프리카공화국

위도: 04-24N, 경도: 018-31E, 고도: 365m

현재 날씨관측

예보는 1 시간 0분 전, 23:00시(UTC)에 발표되었습니다.
무풍
온도 22°C
습도 100%
기압 1014 hPa
시정 10km 이상
고도 1300ft 상공 구름 조금

METAR: FEFF 202300Z 00000KT 9999 FEW013 22/22 Q1014 NOSIG

시각: 01:00 (00:00 UTC)

예보

예보는 1 시간 0분 전, 23:00시(UTC)에 발표되었습니다.
예보 대상 시간: 21일 00시부터 22일 06시까지 (UTC)
여러 방향의 바람 2kt
시정 10km 이상
1500m 미만 상공 구름 및 적란운 없음
전환 중
21일 03시부터 21일 04시까지 (UTC)
시정: 3000m
고도 500ft 상공 구름 많음
박무
전환 중
21일 07시부터 21일 09시까지 (UTC)
시정 10km 이상
고도 1300ft 상공 구름 많음
고도 3300ft 상공 구름 조금, 적란운.
일시적
21일 13시부터 21일 17시까지 (UTC)
시정: 4000m
뇌우, 비

TAF: FEFF 202300Z 2100/2206 VRB02KT CAVOK BECMG 2103/2104 3000 BR BKN005 BECMG 2107/2109 9999 NSW BKN013 FEW033CB TEMPO 2113/2117 4000 TSRA

4,000개 이상의 공항 관측 자료 및 예보 (METAR 및 TAF 보고).

지도상에서 검색 가능한 기상관측소가 노란 점과 빨간 점으로 표시되어 있습니다.

기상관측소 명을 보려면 표시 위로 마우스를 이동하세요.

날씨 관측과 예보를 보려면 클릭하세요.

지도 변경 : 확대하려면 엑스 표시가 있는 녹색 버튼, 축소하려면 빼기 표시가 있는 녹색 버튼, 다음 페이지의 지도를 보려면 녹색 화살표를 클릭하세요.


METAR-TAF: